TimePST,TemperatureF,Dew PointF,Humidity,Sea Level PressureIn,VisibilityMPH,Wind Direction,Wind SpeedMPH,Gust SpeedMPH,PrecipitationIn,Events,Conditions,WindDirDegrees,DateUTC
12:12 AM,42.8,39.2,87,30.32,10.0,ESE,4.6,-,N/A,,Mostly Cloudy,120,2013-02-25 08:12:00
12:56 AM,46.0,41.0,83,30.31,10.0,SSE,9.2,-,N/A,,Overcast,150,2013-02-25 08:56:00
1:56 AM,45.0,39.9,82,30.31,9.0,SSE,10.4,-,0.01,Rain,Light Rain,160,2013-02-25 09:56:00
2:56 AM,44.1,39.0,82,30.31,5.0,SSE,15.0,-,0.03,Rain,Light Rain,150,2013-02-25 10:56:00
3:05 AM,42.8,39.2,87,30.30,5.0,SSE,15.0,-,0.00,Rain,Light Rain,150,2013-02-25 11:05:00
3:35 AM,42.8,39.2,87,30.31,5.0,South,13.8,-,0.01,Rain,Light Rain,170,2013-02-25 11:35:00
3:44 AM,42.8,39.2,87,30.31,4.0,SSE,15.0,-,0.03,Rain,Rain,160,2013-02-25 11:44:00
4:05 AM,42.8,41.0,93,30.31,5.0,SSE,12.7,-,0.01,Rain,Rain,150,2013-02-25 12:05:00
4:38 AM,42.8,41.0,93,30.33,5.0,SSE,8.1,-,0.04,Rain,Light Rain,160,2013-02-25 12:38:00
4:56 AM,43.0,42.1,97,30.34,8.0,South,6.9,-,0.05,Rain,Light Rain,170,2013-02-25 12:56:00
5:17 AM,42.8,42.8,100,30.34,10.0,SE,4.6,-,0.00,,Overcast,130,2013-02-25 13:17:00
5:54 AM,44.6,42.8,93,30.35,10.0,East,4.6,-,0.00,,Overcast,80,2013-02-25 13:54:00
5:56 AM,44.1,43.0,96,30.36,10.0,ENE,3.5,-,0.00,,Overcast,70,2013-02-25 13:56:00
6:56 AM,42.1,41.0,96,30.37,10.0,Calm,Calm,-,N/A,,Mostly Cloudy,0,2013-02-25 14:56:00
7:09 AM,41.0,39.2,93,30.37,1.8,Calm,Calm,-,N/A,,Scattered Clouds,0,2013-02-25 15:09:00
7:18 AM,41.0,39.2,93,30.37,3.0,Calm,Calm,-,N/A,,Partly Cloudy,0,2013-02-25 15:18:00
7:32 AM,39.2,39.2,100,30.38,1.5,Calm,Calm,-,N/A,,Partly Cloudy,0,2013-02-25 15:32:00
7:40 AM,41.0,39.2,93,30.38,1.2,Calm,Calm,-,N/A,,Partly Cloudy,0,2013-02-25 15:40:00
7:43 AM,41.0,39.2,93,30.38,2.0,Calm,Calm,-,N/A,,Partly Cloudy,0,2013-02-25 15:43:00
7:51 AM,42.8,42.8,100,30.39,5.0,Calm,Calm,-,N/A,,Mostly Cloudy,0,2013-02-25 15:51:00
7:56 AM,43.0,43.0,100,30.40,8.0,Calm,Calm,-,N/A,,Mostly Cloudy,0,2013-02-25 15:56:00
8:56 AM,46.0,44.1,93,30.41,10.0,NE,3.5,-,0.00,,Partly Cloudy,50,2013-02-25 16:56:00
9:56 AM,46.9,41.0,80,30.42,9.0,NNW,4.6,-,N/A,,Mostly Cloudy,330,2013-02-25 17:56:00
10:56 AM,50.0,41.0,71,30.42,10.0,NW,5.8,-,N/A,,Clear,310,2013-02-25 18:56:00
11:56 AM,50.0,41.0,71,30.43,10.0,Variable,6.9,-,N/A,,Partly Cloudy,0,2013-02-25 19:56:00
12:56 PM,50.0,41.0,71,30.41,10.0,WNW,8.1,-,N/A,,Clear,300,2013-02-25 20:56:00
1:56 PM,50.0,41.0,71,30.41,10.0,WNW,11.5,-,N/A,,Clear,300,2013-02-25 21:56:00
2:56 PM,50.0,41.0,71,30.41,10.0,NW,12.7,-,N/A,,Clear,310,2013-02-25 22:56:00
3:56 PM,48.9,41.0,74,30.40,10.0,NW,10.4,-,N/A,,Mostly Cloudy,320,2013-02-25 23:56:00
4:56 PM,48.0,39.0,71,30.39,8.0,NW,11.5,-,N/A,,Clear,320,2013-02-26 00:56:00
5:56 PM,45.0,37.9,76,30.39,8.0,NNW,11.5,-,N/A,,Clear,330,2013-02-26 01:56:00
6:56 PM,45.0,37.0,74,30.40,9.0,NNW,15.0,24.2,N/A,,Clear,330,2013-02-26 02:56:00
7:56 PM,44.1,37.0,76,30.39,8.0,NNW,11.5,-,N/A,,Clear,330,2013-02-26 03:56:00
8:56 PM,43.0,36.0,76,30.41,7.0,NNW,8.1,-,N/A,,Clear,340,2013-02-26 04:56:00
9:20 PM,42.8,35.6,76,30.41,6.0,North,4.6,-,N/A,,Haze,350,2013-02-26 05:20:00
9:56 PM,39.9,35.1,83,30.42,7.0,North,4.6,-,N/A,,Mostly Cloudy,360,2013-02-26 05:56:00
10:19 PM,39.2,33.8,81,30.41,10.0,NE,4.6,-,N/A,,Scattered Clouds,40,2013-02-26 06:19:00
10:56 PM,37.9,34.0,86,30.42,10.0,NE,3.5,-,N/A,,Clear,40,2013-02-26 06:56:00
11:56 PM,36.0,33.1,89,30.41,10.0,NNE,4.6,-,N/A,,Clear,30,2013-02-26 07:56:00